sensor_id;sensor_type;location;lat;lon;timestamp;pressure;altitude;pressure_sealevel;temperature;humidity
84122;BME280;74217;51.106;17.084;2024-03-22T00:00:54;100665.34;;;9.88;74.29
84122;BME280;74217;51.106;17.084;2024-03-22T00:03:41;100671.81;;;9.78;74.58
84122;BME280;74217;51.106;17.084;2024-03-22T00:06:25;100673.66;;;9.76;73.52
84122;BME280;74217;51.106;17.084;2024-03-22T00:09:11;100666.53;;;9.80;72.76
84122;BME280;74217;51.106;17.084;2024-03-22T00:11:55;100666.34;;;9.60;74.13
84122;BME280;74217;51.106;17.084;2024-03-22T00:14:41;100670.84;;;9.56;74.00
84122;BME280;74217;51.106;17.084;2024-03-22T00:17:25;100666.94;;;9.68;72.63
84122;BME280;74217;51.106;17.084;2024-03-22T00:20:11;100671.19;;;9.72;73.19
84122;BME280;74217;51.106;17.084;2024-03-22T00:22:55;100670.72;;;9.59;73.52
84122;BME280;74217;51.106;17.084;2024-03-22T00:25:40;100668.16;;;9.58;72.75
84122;BME280;74217;51.106;17.084;2024-03-22T00:28:25;100671.03;;;9.50;71.95
84122;BME280;74217;51.106;17.084;2024-03-22T00:31:10;100667.75;;;9.44;72.19
84122;BME280;74217;51.106;17.084;2024-03-22T00:33:55;100669.81;;;9.34;72.36
84122;BME280;74217;51.106;17.084;2024-03-22T00:36:40;100677.19;;;9.23;72.29
84122;BME280;74217;51.106;17.084;2024-03-22T00:39:25;100679.81;;;9.23;72.10
84122;BME280;74217;51.106;17.084;2024-03-22T00:42:10;100676.38;;;9.21;73.75
84122;BME280;74217;51.106;17.084;2024-03-22T00:44:55;100681.66;;;9.20;72.89
84122;BME280;74217;51.106;17.084;2024-03-22T00:47:41;100685.75;;;9.28;70.97
84122;BME280;74217;51.106;17.084;2024-03-22T00:50:25;100682.53;;;9.20;71.28
84122;BME280;74217;51.106;17.084;2024-03-22T00:53:10;100680.06;;;9.16;70.50
84122;BME280;74217;51.106;17.084;2024-03-22T00:55:56;100673.72;;;8.94;71.17
84122;BME280;74217;51.106;17.084;2024-03-22T00:58:43;100674.75;;;8.90;70.56
84122;BME280;74217;51.106;17.084;2024-03-22T01:01:28;100686.75;;;8.98;70.57
84122;BME280;74217;51.106;17.084;2024-03-22T01:04:12;100683.91;;;9.04;69.00
84122;BME280;74217;51.106;17.084;2024-03-22T01:06:56;100673.88;;;8.89;68.91
84122;BME280;74217;51.106;17.084;2024-03-22T01:09:41;100673.84;;;8.91;68.99
84122;BME280;74217;51.106;17.084;2024-03-22T01:12:28;100678.94;;;8.95;68.86
84122;BME280;74217;51.106;17.084;2024-03-22T01:15:13;100670.78;;;9.04;68.00
84122;BME280;74217;51.106;17.084;2024-03-22T01:17:57;100670.59;;;8.83;69.32
84122;BME280;74217;51.106;17.084;2024-03-22T01:20:43;100671.44;;;8.83;69.69
84122;BME280;74217;51.106;17.084;2024-03-22T01:23:28;100667.91;;;8.84;69.56
84122;BME280;74217;51.106;17.084;2024-03-22T01:26:13;100669.81;;;8.79;68.44
84122;BME280;74217;51.106;17.084;2024-03-22T01:28:57;100666.13;;;8.86;68.14
84122;BME280;74217;51.106;17.084;2024-03-22T01:31:42;100666.31;;;8.80;68.65
84122;BME280;74217;51.106;17.084;2024-03-22T01:34:27;100664.09;;;8.94;68.06
84122;BME280;74217;51.106;17.084;2024-03-22T01:37:12;100660.88;;;8.86;68.81
84122;BME280;74217;51.106;17.084;2024-03-22T01:39:56;100662.47;;;8.90;68.47
84122;BME280;74217;51.106;17.084;2024-03-22T01:42:43;100655.47;;;8.91;69.26
84122;BME280;74217;51.106;17.084;2024-03-22T01:45:31;100655.44;;;8.92;68.85
84122;BME280;74217;51.106;17.084;2024-03-22T01:48:17;100637.44;;;8.80;68.44
84122;BME280;74217;51.106;17.084;2024-03-22T01:51:02;100647.84;;;8.53;70.51
84122;BME280;74217;51.106;17.084;2024-03-22T01:53:49;100648.59;;;8.58;70.31
84122;BME280;74217;51.106;17.084;2024-03-22T01:56:38;100648.69;;;8.53;70.77
84122;BME280;74217;51.106;17.084;2024-03-22T01:59:23;100636.00;;;8.40;71.88
84122;BME280;74217;51.106;17.084;2024-03-22T02:02:08;100640.41;;;8.38;72.00
84122;BME280;74217;51.106;17.084;2024-03-22T02:04:53;100643.88;;;8.40;72.39
84122;BME280;74217;51.106;17.084;2024-03-22T02:07:38;100642.03;;;8.43;72.35
84122;BME280;74217;51.106;17.084;2024-03-22T02:10:23;100642.94;;;8.42;71.75
84122;BME280;74217;51.106;17.084;2024-03-22T02:13:08;100642.94;;;8.42;72.38
84122;BME280;74217;51.106;17.084;2024-03-22T02:15:53;100635.88;;;8.44;72.31
84122;BME280;74217;51.106;17.084;2024-03-22T02:18:38;100643.63;;;8.47;72.44
84122;BME280;74217;51.106;17.084;2024-03-22T02:21:22;100639.28;;;8.46;73.04
84122;BME280;74217;51.106;17.084;2024-03-22T02:24:07;100629.66;;;8.48;72.35
84122;BME280;74217;51.106;17.084;2024-03-22T02:26:52;100636.53;;;8.51;72.01
84122;BME280;74217;51.106;17.084;2024-03-22T02:29:37;100631.53;;;8.43;72.28
84122;BME280;74217;51.106;17.084;2024-03-22T02:32:21;100634.22;;;8.40;73.12
84122;BME280;74217;51.106;17.084;2024-03-22T02:35:06;100630.88;;;8.35;73.71
84122;BME280;74217;51.106;17.084;2024-03-22T02:37:51;100636.75;;;8.14;74.79
84122;BME280;74217;51.106;17.084;2024-03-22T02:40:35;100633.66;;;8.29;73.72
84122;BME280;74217;51.106;17.084;2024-03-22T02:43:21;100632.03;;;8.27;74.77
84122;BME280;74217;51.106;17.084;2024-03-22T02:46:05;100624.19;;;8.25;74.94
84122;BME280;74217;51.106;17.084;2024-03-22T02:48:50;100631.06;;;8.29;74.68
84122;BME280;74217;51.106;17.084;2024-03-22T02:51:34;100629.78;;;8.13;75.19
84122;BME280;74217;51.106;17.084;2024-03-22T02:54:19;100622.66;;;8.18;74.79
84122;BME280;74217;51.106;17.084;2024-03-22T02:57:03;100628.88;;;8.14;75.27
84122;BME280;74217;51.106;17.084;2024-03-22T02:59:49;100627.06;;;8.16;75.08
84122;BME280;74217;51.106;17.084;2024-03-22T03:02:33;100629.63;;;8.19;75.73
84122;BME280;74217;51.106;17.084;2024-03-22T03:05:18;100620.06;;;8.17;75.31
84122;BME280;74217;51.106;17.084;2024-03-22T03:08:02;100624.44;;;8.16;75.92
84122;BME280;74217;51.106;17.084;2024-03-22T03:10:48;100620.88;;;8.19;76.37
84122;BME280;74217;51.106;17.084;2024-03-22T03:13:32;100623.44;;;8.22;76.24
84122;BME280;74217;51.106;17.084;2024-03-22T03:16:17;100623.63;;;8.14;77.59
84122;BME280;74217;51.106;17.084;2024-03-22T03:19:02;100625.47;;;8.11;78.18
84122;BME280;74217;51.106;17.084;2024-03-22T03:21:47;100620.03;;;8.18;78.32
84122;BME280;74217;51.106;17.084;2024-03-22T03:24:31;100614.78;;;8.18;78.27
84122;BME280;74217;51.106;17.084;2024-03-22T03:27:16;100605.47;;;8.08;78.38
84122;BME280;74217;51.106;17.084;2024-03-22T03:30:01;100602.88;;;8.07;79.53
84122;BME280;74217;51.106;17.084;2024-03-22T03:32:46;100609.03;;;8.06;80.27
84122;BME280;74217;51.106;17.084;2024-03-22T03:35:30;100608.13;;;8.07;79.80
84122;BME280;74217;51.106;17.084;2024-03-22T03:38:14;100605.63;;;8.02;81.35
84122;BME280;74217;51.106;17.084;2024-03-22T03:40:59;100609.06;;;8.04;81.14
84122;BME280;74217;51.106;17.084;2024-03-22T03:43:44;100604.34;;;7.86;81.96
84122;BME280;74217;51.106;17.084;2024-03-22T03:46:29;100601.66;;;7.88;81.09
84122;BME280;74217;51.106;17.084;2024-03-22T03:49:14;100598.16;;;7.89;80.79
84122;BME280;74217;51.106;17.084;2024-03-22T03:51:58;100599.28;;;7.80;81.91
84122;BME280;74217;51.106;17.084;2024-03-22T03:54:43;100608.22;;;7.73;81.64
84122;BME280;74217;51.106;17.084;2024-03-22T03:57:28;100594.91;;;7.79;81.71
84122;BME280;74217;51.106;17.084;2024-03-22T04:00:13;100599.88;;;7.90;81.30
84122;BME280;74217;51.106;17.084;2024-03-22T04:02:58;100599.13;;;7.86;81.32
84122;BME280;74217;51.106;17.084;2024-03-22T04:05:43;100606.56;;;7.69;81.98
84122;BME280;74217;51.106;17.084;2024-03-22T04:08:28;100605.38;;;7.79;81.50
84122;BME280;74217;51.106;17.084;2024-03-22T04:11:13;100614.06;;;7.83;80.79
84122;BME280;74217;51.106;17.084;2024-03-22T04:13:57;100606.13;;;7.84;81.26
84122;BME280;74217;51.106;17.084;2024-03-22T04:16:42;100613.03;;;7.88;81.57
84122;BME280;74217;51.106;17.084;2024-03-22T04:19:27;100610.44;;;7.87;80.81
84122;BME280;74217;51.106;17.084;2024-03-22T04:22:13;100600.72;;;7.90;80.24
84122;BME280;74217;51.106;17.084;2024-03-22T04:24:57;100617.28;;;7.92;80.54
84122;BME280;74217;51.106;17.084;2024-03-22T04:27:42;100604.22;;;7.91;80.57
84122;BME280;74217;51.106;17.084;2024-03-22T04:30:26;100601.72;;;7.86;81.07
84122;BME280;74217;51.106;17.084;2024-03-22T04:33:11;100607.00;;;7.85;81.48
84122;BME280;74217;51.106;17.084;2024-03-22T04:35:56;100596.44;;;7.88;80.32
84122;BME280;74217;51.106;17.084;2024-03-22T04:38:41;100599.13;;;7.86;81.09
84122;BME280;74217;51.106;17.084;2024-03-22T04:41:26;100604.03;;;7.98;81.06
84122;BME280;74217;51.106;17.084;2024-03-22T04:44:11;100607.94;;;8.13;79.97
84122;BME280;74217;51.106;17.084;2024-03-22T04:46:57;100613.44;;;8.05;80.25
84122;BME280;74217;51.106;17.084;2024-03-22T04:49:41;100606.63;;;7.98;80.71
84122;BME280;74217;51.106;17.084;2024-03-22T04:52:26;100612.59;;;8.03;80.47
84122;BME280;74217;51.106;17.084;2024-03-22T04:55:11;100612.50;;;8.06;80.50
84122;BME280;74217;51.106;17.084;2024-03-22T04:57:56;100610.69;;;8.08;80.31
84122;BME280;74217;51.106;17.084;2024-03-22T05:00:42;100613.88;;;8.19;79.41
84122;BME280;74217;51.106;17.084;2024-03-22T05:03:27;100616.03;;;8.05;80.21
84122;BME280;74217;51.106;17.084;2024-03-22T05:06:12;100610.53;;;8.14;80.36
84122;BME280;74217;51.106;17.084;2024-03-22T05:08:57;100614.34;;;8.33;79.58
84122;BME280;74217;51.106;17.084;2024-03-22T05:11:42;100618.78;;;8.31;79.24
84122;BME280;74217;51.106;17.084;2024-03-22T05:14:27;100603.41;;;8.19;79.11
84122;BME280;74217;51.106;17.084;2024-03-22T05:17:12;100620.53;;;8.31;78.91
84122;BME280;74217;51.106;17.084;2024-03-22T05:20:00;100616.03;;;8.36;78.96
84122;BME280;74217;51.106;17.084;2024-03-22T05:22:47;100604.84;;;8.29;79.03
84122;BME280;74217;51.106;17.084;2024-03-22T05:25:32;100601.34;;;8.30;79.84
84122;BME280;74217;51.106;17.084;2024-03-22T05:28:16;100608.28;;;8.31;79.75
84122;BME280;74217;51.106;17.084;2024-03-22T05:31:01;100599.69;;;8.26;79.73
84122;BME280;74217;51.106;17.084;2024-03-22T05:33:46;100609.91;;;8.35;79.62
84122;BME280;74217;51.106;17.084;2024-03-22T05:36:31;100621.41;;;8.31;79.34
84122;BME280;74217;51.106;17.084;2024-03-22T05:39:15;100618.22;;;8.20;81.00
84122;BME280;74217;51.106;17.084;2024-03-22T05:42:00;100613.47;;;8.04;83.27
84122;BME280;74217;51.106;17.084;2024-03-22T05:44:46;100618.50;;;8.11;82.10
84122;BME280;74217;51.106;17.084;2024-03-22T05:47:30;100614.56;;;7.95;83.19
84122;BME280;74217;51.106;17.084;2024-03-22T05:50:16;100624.09;;;7.67;83.71
84122;BME280;74217;51.106;17.084;2024-03-22T05:53:00;100613.50;;;7.70;83.92
84122;BME280;74217;51.106;17.084;2024-03-22T05:55:45;100626.56;;;7.72;84.12
84122;BME280;74217;51.106;17.084;2024-03-22T05:58:29;100620.06;;;7.86;84.04
84122;BME280;74217;51.106;17.084;2024-03-22T06:01:15;100625.38;;;7.83;82.90
84122;BME280;74217;51.106;17.084;2024-03-22T06:03:59;100619.91;;;7.92;82.95
84122;BME280;74217;51.106;17.084;2024-03-22T06:06:44;100627.19;;;8.12;82.40
84122;BME280;74217;51.106;17.084;2024-03-22T06:09:29;100625.44;;;8.12;81.50
84122;BME280;74217;51.106;17.084;2024-03-22T06:12:30;100619.38;;;8.10;81.55
84122;BME280;74217;51.106;17.084;2024-03-22T06:15:15;100624.28;;;7.92;79.83
84122;BME280;74217;51.106;17.084;2024-03-22T06:18:00;100620.06;;;7.86;79.41
84122;BME280;74217;51.106;17.084;2024-03-22T06:20:44;100616.06;;;7.73;79.76
84122;BME280;74217;51.106;17.084;2024-03-22T06:23:29;100621.78;;;7.87;79.50
84122;BME280;74217;51.106;17.084;2024-03-22T06:26:13;100618.31;;;7.85;78.62
84122;BME280;74217;51.106;17.084;2024-03-22T06:28:58;100618.31;;;7.85;77.84
84122;BME280;74217;51.106;17.084;2024-03-22T06:31:43;100615.84;;;7.81;78.92
84122;BME280;74217;51.106;17.084;2024-03-22T06:34:27;100608.69;;;7.87;77.72
84122;BME280;74217;51.106;17.084;2024-03-22T06:37:12;100610.97;;;7.99;75.91
84122;BME280;74217;51.106;17.084;2024-03-22T06:39:56;100604.34;;;7.86;77.47
84122;BME280;74217;51.106;17.084;2024-03-22T06:42:42;100607.78;;;7.88;76.04
84122;BME280;74217;51.106;17.084;2024-03-22T06:45:27;100611.13;;;7.93;75.76
84122;BME280;74217;51.106;17.084;2024-03-22T06:48:12;100616.22;;;7.99;74.39
84122;BME280;74217;51.106;17.084;2024-03-22T06:50:59;100602.44;;;7.91;74.45
84122;BME280;74217;51.106;17.084;2024-03-22T06:53:43;100606.53;;;8.01;74.82
84122;BME280;74217;51.106;17.084;2024-03-22T06:56:29;100603.31;;;7.92;76.04
84122;BME280;74217;51.106;17.084;2024-03-22T06:59:14;100603.81;;;8.04;75.35
84122;BME280;74217;51.106;17.084;2024-03-22T07:01:58;100602.38;;;7.94;75.82
84122;BME280;74217;51.106;17.084;2024-03-22T07:04:43;100596.78;;;8.06;74.47
84122;BME280;74217;51.106;17.084;2024-03-22T07:07:28;100586.03;;;8.15;73.41
84122;BME280;74217;51.106;17.084;2024-03-22T07:10:12;100585.06;;;8.19;74.12
84122;BME280;74217;51.106;17.084;2024-03-22T07:12:57;100589.75;;;8.37;73.17
84122;BME280;74217;51.106;17.084;2024-03-22T07:15:44;100589.03;;;8.32;73.59
84122;BME280;74217;51.106;17.084;2024-03-22T07:18:29;100581.72;;;8.43;73.92
84122;BME280;74217;51.106;17.084;2024-03-22T07:21:14;100588.56;;;8.47;73.62
84122;BME280;74217;51.106;17.084;2024-03-22T07:23:58;100582.69;;;8.39;73.95
84122;BME280;74217;51.106;17.084;2024-03-22T07:26:43;100588.84;;;8.38;72.72
84122;BME280;74217;51.106;17.084;2024-03-22T07:29:27;100594.81;;;8.43;71.62
84122;BME280;74217;51.106;17.084;2024-03-22T07:32:12;100597.53;;;8.40;73.05
84122;BME280;74217;51.106;17.084;2024-03-22T07:34:57;100600.69;;;8.51;71.73
84122;BME280;74217;51.106;17.084;2024-03-22T07:37:42;100600.88;;;8.45;71.35
84122;BME280;74217;51.106;17.084;2024-03-22T07:40:27;100591.00;;;8.53;71.05
84122;BME280;74217;51.106;17.084;2024-03-22T07:43:11;100595.19;;;8.60;70.89
84122;BME280;74217;51.106;17.084;2024-03-22T07:46:22;100585.56;;;8.61;70.18
84122;BME280;74217;51.106;17.084;2024-03-22T07:49:07;100589.75;;;8.66;71.26
84122;BME280;74217;51.106;17.084;2024-03-22T07:51:52;100591.06;;;8.52;70.03
84122;BME280;74217;51.106;17.084;2024-03-22T07:54:37;100590.97;;;8.55;71.26
84122;BME280;74217;51.106;17.084;2024-03-22T07:57:22;100583.91;;;8.58;70.94
84122;BME280;74217;51.106;17.084;2024-03-22T08:00:08;100579.38;;;8.63;70.54
84122;BME280;74217;51.106;17.084;2024-03-22T08:02:52;100576.03;;;8.57;70.61
84122;BME280;74217;51.106;17.084;2024-03-22T08:05:38;100568.31;;;8.52;70.84
84122;BME280;74217;51.106;17.084;2024-03-22T08:08:22;100559.91;;;8.41;72.15
84122;BME280;74217;51.106;17.084;2024-03-22T08:11:07;100554.25;;;8.55;70.37
84122;BME280;74217;51.106;17.084;2024-03-22T08:13:51;100533.88;;;8.64;71.19
84122;BME280;74217;51.106;17.084;2024-03-22T08:16:36;100541.00;;;8.87;69.89
84122;BME280;74217;51.106;17.084;2024-03-22T08:19:20;100540.56;;;9.00;71.34
84122;BME280;74217;51.106;17.084;2024-03-22T08:22:05;100540.13;;;9.14;70.96
84122;BME280;74217;51.106;17.084;2024-03-22T08:24:49;100524.78;;;9.26;68.07
84122;BME280;74217;51.106;17.084;2024-03-22T08:27:34;100533.16;;;9.37;68.93
84122;BME280;74217;51.106;17.084;2024-03-22T08:30:19;100516.13;;;9.49;67.73
84122;BME280;74217;51.106;17.084;2024-03-22T08:33:04;100530.47;;;9.63;67.24
84122;BME280;74217;51.106;17.084;2024-03-22T08:35:48;100524.88;;;9.72;65.62
84122;BME280;74217;51.106;17.084;2024-03-22T08:38:33;100514.56;;;9.91;65.72
84122;BME280;74217;51.106;17.084;2024-03-22T08:41:17;100515.50;;;9.90;65.16
84122;BME280;74217;51.106;17.084;2024-03-22T08:44:02;100508.66;;;9.84;66.34
84122;BME280;74217;51.106;17.084;2024-03-22T08:46:47;100510.16;;;9.91;65.90
84122;BME280;74217;51.106;17.084;2024-03-22T08:49:32;100507.78;;;10.08;66.03
84122;BME280;74217;51.106;17.084;2024-03-22T08:52:17;100507.47;;;10.17;64.59
84122;BME280;74217;51.106;17.084;2024-03-22T08:55:01;100494.19;;;10.20;66.09
84122;BME280;74217;51.106;17.084;2024-03-22T08:57:49;100494.22;;;10.19;63.91
84122;BME280;74217;51.106;17.084;2024-03-22T09:00:33;100485.28;;;10.24;62.75
84122;BME280;74217;51.106;17.084;2024-03-22T09:03:17;100483.63;;;10.22;63.92
84122;BME280;74217;51.106;17.084;2024-03-22T09:06:03;100482.28;;;10.33;64.66
84122;BME280;74217;51.106;17.084;2024-03-22T09:08:48;100477.25;;;10.49;63.42
84122;BME280;74217;51.106;17.084;2024-03-22T09:11:33;100466.88;;;10.67;64.10
84122;BME280;74217;51.106;17.084;2024-03-22T09:14:18;100466.41;;;10.78;61.07
84122;BME280;74217;51.106;17.084;2024-03-22T09:17:03;100459.59;;;10.72;61.57
84122;BME280;74217;51.106;17.084;2024-03-22T09:19:48;100464.16;;;10.69;62.46
84122;BME280;74217;51.106;17.084;2024-03-22T09:22:33;100468.09;;;10.59;62.70
84122;BME280;74217;51.106;17.084;2024-03-22T09:25:18;100463.91;;;10.53;62.69
84122;BME280;74217;51.106;17.084;2024-03-22T09:28:03;100461.72;;;10.64;62.23
84122;BME280;74217;51.106;17.084;2024-03-22T09:30:48;100464.75;;;10.75;62.05
84122;BME280;74217;51.106;17.084;2024-03-22T09:33:36;100466.91;;;10.87;61.96
84122;BME280;74217;51.106;17.084;2024-03-22T09:36:20;100459.00;;;10.87;60.25
84122;BME280;74217;51.106;17.084;2024-03-22T09:39:06;100453.13;;;10.81;63.11
84122;BME280;74217;51.106;17.084;2024-03-22T09:41:52;100456.88;;;10.95;63.33
84122;BME280;74217;51.106;17.084;2024-03-22T09:44:37;100456.09;;;11.13;61.71
84122;BME280;74217;51.106;17.084;2024-03-22T09:47:24;100446.50;;;11.12;59.99
84122;BME280;74217;51.106;17.084;2024-03-22T09:50:12;100454.19;;;11.16;61.18
84122;BME280;74217;51.106;17.084;2024-03-22T09:52:57;100447.28;;;11.14;60.68
84122;BME280;74217;51.106;17.084;2024-03-22T09:55:41;100441.66;;;11.23;60.06
84122;BME280;74217;51.106;17.084;2024-03-22T09:58:28;100449.22;;;11.30;59.42
84122;BME280;74217;51.106;17.084;2024-03-22T10:01:13;100444.66;;;11.34;58.46
84122;BME280;74217;51.106;17.084;2024-03-22T10:03:58;100439.41;;;11.34;58.00
84122;BME280;74217;51.106;17.084;2024-03-22T10:06:42;100446.63;;;11.09;60.40
84122;BME280;74217;51.106;17.084;2024-03-22T10:09:30;100438.81;;;11.07;59.42
84122;BME280;74217;51.106;17.084;2024-03-22T10:12:16;100433.34;;;11.12;59.52
84122;BME280;74217;51.106;17.084;2024-03-22T10:15:00;100440.41;;;11.10;60.56
84122;BME280;74217;51.106;17.084;2024-03-22T10:17:45;100433.34;;;11.12;61.64
84122;BME280;74217;51.106;17.084;2024-03-22T10:20:29;100435.38;;;11.25;59.00
84122;BME280;74217;51.106;17.084;2024-03-22T10:23:14;100428.66;;;11.18;60.43
84122;BME280;74217;51.106;17.084;2024-03-22T10:25:59;100427.41;;;11.27;58.94
84122;BME280;74217;51.106;17.084;2024-03-22T10:28:48;100420.13;;;11.33;57.11
84122;BME280;74217;51.106;17.084;2024-03-22T10:31:34;100415.06;;;11.29;56.83
84122;BME280;74217;51.106;17.084;2024-03-22T10:34:22;100399.75;;;11.17;56.25
84122;BME280;74217;51.106;17.084;2024-03-22T10:37:10;100402.16;;;11.23;57.20
84122;BME280;74217;51.106;17.084;2024-03-22T10:39:55;100408.00;;;11.29;56.83
84122;BME280;74217;51.106;17.084;2024-03-22T10:42:41;100400.41;;;11.42;57.34
84122;BME280;74217;51.106;17.084;2024-03-22T10:45:27;100391.31;;;11.49;59.94
84122;BME280;74217;51.106;17.084;2024-03-22T10:48:15;100400.84;;;11.70;58.92
84122;BME280;74217;51.106;17.084;2024-03-22T10:51:01;100398.59;;;11.81;56.43
84122;BME280;74217;51.106;17.084;2024-03-22T10:53:47;100386.59;;;11.92;54.89
84122;BME280;74217;51.106;17.084;2024-03-22T10:56:32;100384.63;;;11.79;57.70
84122;BME280;74217;51.106;17.084;2024-03-22T10:59:23;100380.78;;;11.86;55.49
84122;BME280;74217;51.106;17.084;2024-03-22T11:02:11;100383.59;;;11.81;57.00
84122;BME280;74217;51.106;17.084;2024-03-22T11:04:58;100384.88;;;11.91;55.08
84122;BME280;74217;51.106;17.084;2024-03-22T11:07:44;100369.41;;;12.02;55.75
84122;BME280;74217;51.106;17.084;2024-03-22T11:10:29;100373.56;;;12.25;54.71
84122;BME280;74217;51.106;17.084;2024-03-22T11:13:17;100357.88;;;12.22;55.96
84122;BME280;74217;51.106;17.084;2024-03-22T11:16:02;100349.34;;;12.35;55.41
84122;BME280;74217;51.106;17.084;2024-03-22T11:18:48;100341.75;;;12.46;53.40
84122;BME280;74217;51.106;17.084;2024-03-22T11:21:33;100332.41;;;12.56;53.91
84122;BME280;74217;51.106;17.084;2024-03-22T11:24:18;100331.50;;;12.57;55.00
84122;BME280;74217;51.106;17.084;2024-03-22T11:27:03;100323.66;;;12.73;53.39
84122;BME280;74217;51.106;17.084;2024-03-22T11:29:48;100319.66;;;12.81;54.47
84122;BME280;74217;51.106;17.084;2024-03-22T11:32:35;100320.50;;;12.99;53.20
84122;BME280;74217;51.106;17.084;2024-03-22T11:35:28;100307.41;;;13.13;51.67
84122;BME280;74217;51.106;17.084;2024-03-22T11:38:13;100300.84;;;13.20;52.41
84122;BME280;74217;51.106;17.084;2024-03-22T11:41:00;100292.78;;;13.23;50.03
84122;BME280;74217;51.106;17.084;2024-03-22T11:43:47;100291.56;;;13.13;51.46
84122;BME280;74217;51.106;17.084;2024-03-22T11:46:32;100283.88;;;13.08;52.37
84122;BME280;74217;51.106;17.084;2024-03-22T11:49:17;100278.84;;;13.04;53.04
84122;BME280;74217;51.106;17.084;2024-03-22T11:52:03;100283.66;;;12.96;50.82
84122;BME280;74217;51.106;17.084;2024-03-22T11:54:51;100272.41;;;12.92;51.81
84122;BME280;74217;51.106;17.084;2024-03-22T11:57:40;100272.78;;;13.02;51.10
84122;BME280;74217;51.106;17.084;2024-03-22T12:00:24;100258.97;;;13.12;49.72
84122;BME280;74217;51.106;17.084;2024-03-22T12:03:10;100258.31;;;13.09;50.44
84122;BME280;74217;51.106;17.084;2024-03-22T12:05:54;100248.59;;;13.09;49.98
84122;BME280;74217;51.106;17.084;2024-03-22T12:08:39;100260.38;;;13.04;50.83
84122;BME280;74217;51.106;17.084;2024-03-22T12:11:25;100253.34;;;13.03;49.06
84122;BME280;74217;51.106;17.084;2024-03-22T12:14:09;100240.06;;;13.04;48.43
84122;BME280;74217;51.106;17.084;2024-03-22T12:16:54;100235.13;;;12.98;50.93
84122;BME280;74217;51.106;17.084;2024-03-22T12:19:39;100233.50;;;12.96;52.10
84122;BME280;74217;51.106;17.084;2024-03-22T12:22:24;100227.63;;;13.06;51.61
84122;BME280;74217;51.106;17.084;2024-03-22T12:25:10;100229.50;;;13.20;50.95
84122;BME280;74217;51.106;17.084;2024-03-22T12:27:55;100229.25;;;13.24;52.85
84122;BME280;74217;51.106;17.084;2024-03-22T12:30:40;100225.78;;;13.24;52.19
84122;BME280;74217;51.106;17.084;2024-03-22T12:33:24;100217.25;;;13.19;52.64
84122;BME280;74217;51.106;17.084;2024-03-22T12:36:09;100223.72;;;13.13;54.45
84122;BME280;74217;51.106;17.084;2024-03-22T12:38:53;100209.94;;;13.24;52.42
84122;BME280;74217;51.106;17.084;2024-03-22T12:41:37;100203.84;;;13.22;53.57
84122;BME280;74217;51.106;17.084;2024-03-22T12:44:22;100206.50;;;13.22;51.41
84122;BME280;74217;51.106;17.084;2024-03-22T12:47:07;100204.19;;;13.16;52.71
84122;BME280;74217;51.106;17.084;2024-03-22T12:49:53;100192.78;;;13.15;51.30
84122;BME280;74217;51.106;17.084;2024-03-22T12:52:37;100192.09;;;13.12;51.77
84122;BME280;74217;51.106;17.084;2024-03-22T12:55:22;100186.97;;;13.09;50.42
84122;BME280;74217;51.106;17.084;2024-03-22T12:58:07;100191.25;;;13.11;51.81
84122;BME280;74217;51.106;17.084;2024-03-22T13:00:51;100182.13;;;13.17;50.40
84122;BME280;74217;51.106;17.084;2024-03-22T13:03:40;100171.31;;;13.06;50.50
84122;BME280;74217;51.106;17.084;2024-03-22T13:06:25;100173.75;;;13.09;51.62
84122;BME280;74217;51.106;17.084;2024-03-22T13:09:11;100167.97;;;13.02;52.64
84122;BME280;74217;51.106;17.084;2024-03-22T13:11:57;100165.09;;;13.07;51.84
84122;BME280;74217;51.106;17.084;2024-03-22T13:14:43;100156.41;;;13.05;52.62
84122;BME280;74217;51.106;17.084;2024-03-22T13:17:29;100159.38;;;13.14;52.20
84122;BME280;74217;51.106;17.084;2024-03-22T13:20:14;100156.63;;;13.16;52.70
84122;BME280;74217;51.106;17.084;2024-03-22T13:23:00;100156.88;;;13.27;50.66
84122;BME280;74217;51.106;17.084;2024-03-22T13:25:46;100150.16;;;13.37;50.72
84122;BME280;74217;51.106;17.084;2024-03-22T13:28:32;100146.53;;;13.39;51.27
84122;BME280;74217;51.106;17.084;2024-03-22T13:31:18;100144.88;;;13.52;50.10
84122;BME280;74217;51.106;17.084;2024-03-22T13:34:04;100129.75;;;13.54;51.52
84122;BME280;74217;51.106;17.084;2024-03-22T13:36:48;100120.84;;;13.71;49.94
84122;BME280;74217;51.106;17.084;2024-03-22T13:39:33;100122.03;;;13.81;48.07
84122;BME280;74217;51.106;17.084;2024-03-22T13:42:18;100114.31;;;13.92;47.69
84122;BME280;74217;51.106;17.084;2024-03-22T13:45:04;100115.81;;;13.96;47.36
84122;BME280;74217;51.106;17.084;2024-03-22T13:47:49;100110.03;;;13.89;48.16
84122;BME280;74217;51.106;17.084;2024-03-22T13:50:33;100109.25;;;13.87;50.29
84122;BME280;74217;51.106;17.084;2024-03-22T13:53:18;100096.91;;;13.88;48.90
84122;BME280;74217;51.106;17.084;2024-03-22T13:56:03;100101.59;;;13.83;49.02
84122;BME280;74217;51.106;17.084;2024-03-22T13:58:48;100102.91;;;13.76;49.49
84122;BME280;74217;51.106;17.084;2024-03-22T14:01:33;100092.53;;;13.73;48.78
84122;BME280;74217;51.106;17.084;2024-03-22T14:04:18;100090.66;;;13.75;49.15
84122;BME280;74217;51.106;17.084;2024-03-22T14:07:06;100091.03;;;13.83;49.05
84122;BME280;74217;51.106;17.084;2024-03-22T14:09:52;100086.88;;;13.79;49.62
84122;BME280;74217;51.106;17.084;2024-03-22T14:12:36;100087.44;;;13.84;48.16
84122;BME280;74217;51.106;17.084;2024-03-22T14:15:21;100087.28;;;13.87;49.07
84122;BME280;74217;51.106;17.084;2024-03-22T14:18:09;100072.91;;;13.91;46.73